sensor_id;sensor_type;location;lat;lon;timestamp;P1;durP1;ratioP1;P2;durP2;ratioP2
10110;SDS011;5095;49.796;9.934;2023-05-10T00:01:25;2.47;;;1.60;;
10110;SDS011;5095;49.796;9.934;2023-05-10T00:03:51;2.13;;;1.57;;
10110;SDS011;5095;49.796;9.934;2023-05-10T00:06:17;2.30;;;1.67;;
10110;SDS011;5095;49.796;9.934;2023-05-10T00:08:44;3.90;;;2.00;;
10110;SDS011;5095;49.796;9.934;2023-05-10T00:11:10;2.80;;;1.57;;
10110;SDS011;5095;49.796;9.934;2023-05-10T00:13:37;3.17;;;1.60;;
10110;SDS011;5095;49.796;9.934;2023-05-10T00:16:03;2.07;;;1.50;;
10110;SDS011;5095;49.796;9.934;2023-05-10T00:18:29;2.33;;;1.70;;
10110;SDS011;5095;49.796;9.934;2023-05-10T00:20:55;2.80;;;1.73;;
10110;SDS011;5095;49.796;9.934;2023-05-10T00:23:21;2.10;;;1.33;;
10110;SDS011;5095;49.796;9.934;2023-05-10T00:25:47;1.93;;;1.50;;
10110;SDS011;5095;49.796;9.934;2023-05-10T00:28:13;2.27;;;1.40;;
10110;SDS011;5095;49.796;9.934;2023-05-10T00:30:39;2.47;;;1.60;;
10110;SDS011;5095;49.796;9.934;2023-05-10T00:33:05;1.47;;;1.37;;
10110;SDS011;5095;49.796;9.934;2023-05-10T00:35:31;2.10;;;1.53;;
10110;SDS011;5095;49.796;9.934;2023-05-10T00:37:57;2.00;;;1.37;;
10110;SDS011;5095;49.796;9.934;2023-05-10T00:40:23;1.50;;;1.40;;
10110;SDS011;5095;49.796;9.934;2023-05-10T00:42:50;1.93;;;1.50;;
10110;SDS011;5095;49.796;9.934;2023-05-10T00:45:16;2.53;;;1.60;;
10110;SDS011;5095;49.796;9.934;2023-05-10T00:47:42;2.57;;;1.67;;
10110;SDS011;5095;49.796;9.934;2023-05-10T00:50:08;3.60;;;1.87;;
10110;SDS011;5095;49.796;9.934;2023-05-10T00:52:34;2.47;;;1.80;;
10110;SDS011;5095;49.796;9.934;2023-05-10T00:55:01;3.13;;;1.70;;
10110;SDS011;5095;49.796;9.934;2023-05-10T00:57:28;4.03;;;1.83;;
10110;SDS011;5095;49.796;9.934;2023-05-10T00:59:54;2.00;;;1.40;;
10110;SDS011;5095;49.796;9.934;2023-05-10T01:02:20;1.93;;;1.50;;
10110;SDS011;5095;49.796;9.934;2023-05-10T01:04:46;2.07;;;1.50;;
10110;SDS011;5095;49.796;9.934;2023-05-10T01:07:12;2.27;;;1.50;;
10110;SDS011;5095;49.796;9.934;2023-05-10T01:09:38;1.83;;;1.70;;
10110;SDS011;5095;49.796;9.934;2023-05-10T01:12:04;2.80;;;1.60;;
10110;SDS011;5095;49.796;9.934;2023-05-10T01:14:32;1.83;;;1.30;;
10110;SDS011;5095;49.796;9.934;2023-05-10T01:16:58;1.90;;;1.40;;
10110;SDS011;5095;49.796;9.934;2023-05-10T01:19:26;2.50;;;1.30;;
10110;SDS011;5095;49.796;9.934;2023-05-10T01:27:10;1.57;;;1.10;;
10110;SDS011;5095;49.796;9.934;2023-05-10T01:33:07;1.50;;;1.07;;
10110;SDS011;5095;49.796;9.934;2023-05-10T01:38:43;1.37;;;1.23;;
10110;SDS011;5095;49.796;9.934;2023-05-10T01:41:00;1.73;;;1.00;;
10110;SDS011;5095;49.796;9.934;2023-05-10T01:43:31;1.73;;;1.00;;
10110;SDS011;5095;49.796;9.934;2023-05-10T01:48:25;3.00;;;0.90;;
10110;SDS011;5095;49.796;9.934;2023-05-10T01:50:52;1.10;;;1.00;;
10110;SDS011;5095;49.796;9.934;2023-05-10T01:53:19;1.27;;;0.93;;
10110;SDS011;5095;49.796;9.934;2023-05-10T01:55:46;1.00;;;0.90;;
10110;SDS011;5095;49.796;9.934;2023-05-10T01:58:13;0.60;;;0.60;;
10110;SDS011;5095;49.796;9.934;2023-05-10T02:00:44;1.20;;;1.03;;
10110;SDS011;5095;49.796;9.934;2023-05-10T02:03:10;0.80;;;0.70;;
10110;SDS011;5095;49.796;9.934;2023-05-10T02:05:37;0.80;;;0.80;;
10110;SDS011;5095;49.796;9.934;2023-05-10T02:08:07;1.40;;;0.60;;
10110;SDS011;5095;49.796;9.934;2023-05-10T02:10:36;1.03;;;0.60;;
10110;SDS011;5095;49.796;9.934;2023-05-10T02:13:03;1.63;;;0.90;;
10110;SDS011;5095;49.796;9.934;2023-05-10T02:15:31;1.00;;;0.87;;
10110;SDS011;5095;49.796;9.934;2023-05-10T02:17:58;0.97;;;0.60;;
10110;SDS011;5095;49.796;9.934;2023-05-10T02:20:25;0.70;;;0.57;;
10110;SDS011;5095;49.796;9.934;2023-05-10T02:22:52;1.37;;;0.70;;
10110;SDS011;5095;49.796;9.934;2023-05-10T02:25:19;0.63;;;0.53;;
10110;SDS011;5095;49.796;9.934;2023-05-10T02:27:47;0.63;;;0.50;;
10110;SDS011;5095;49.796;9.934;2023-05-10T02:30:13;0.83;;;0.73;;
10110;SDS011;5095;49.796;9.934;2023-05-10T02:32:40;1.70;;;0.60;;
10110;SDS011;5095;49.796;9.934;2023-05-10T02:35:07;0.97;;;0.83;;
10110;SDS011;5095;49.796;9.934;2023-05-10T02:37:34;0.50;;;0.50;;
10110;SDS011;5095;49.796;9.934;2023-05-10T02:40:01;0.40;;;0.40;;
10110;SDS011;5095;49.796;9.934;2023-05-10T02:42:31;0.73;;;0.57;;
10110;SDS011;5095;49.796;9.934;2023-05-10T02:45:02;1.90;;;0.50;;
10110;SDS011;5095;49.796;9.934;2023-05-10T02:47:30;0.67;;;0.67;;
10110;SDS011;5095;49.796;9.934;2023-05-10T02:49:56;0.50;;;0.50;;
10110;SDS011;5095;49.796;9.934;2023-05-10T02:52:28;0.80;;;0.50;;
10110;SDS011;5095;49.796;9.934;2023-05-10T02:54:58;0.47;;;0.47;;
10110;SDS011;5095;49.796;9.934;2023-05-10T02:57:28;0.50;;;0.50;;
10110;SDS011;5095;49.796;9.934;2023-05-10T02:59:57;0.60;;;0.60;;
10110;SDS011;5095;49.796;9.934;2023-05-10T03:02:25;7.03;;;1.47;;
10110;SDS011;5095;49.796;9.934;2023-05-10T03:04:51;0.50;;;0.50;;
10110;SDS011;5095;49.796;9.934;2023-05-10T03:07:17;0.40;;;0.37;;
10110;SDS011;5095;49.796;9.934;2023-05-10T03:09:46;1.60;;;0.50;;
10110;SDS011;5095;49.796;9.934;2023-05-10T03:17:29;0.50;;;0.50;;
10110;SDS011;5095;49.796;9.934;2023-05-10T03:19:57;0.90;;;0.63;;
10110;SDS011;5095;49.796;9.934;2023-05-10T03:22:30;0.73;;;0.57;;
10110;SDS011;5095;49.796;9.934;2023-05-10T03:24:56;0.50;;;0.50;;
10110;SDS011;5095;49.796;9.934;2023-05-10T03:27:23;0.40;;;0.40;;
10110;SDS011;5095;49.796;9.934;2023-05-10T03:29:50;1.10;;;0.50;;
10110;SDS011;5095;49.796;9.934;2023-05-10T03:32:16;0.70;;;0.50;;
10110;SDS011;5095;49.796;9.934;2023-05-10T03:34:42;1.87;;;0.50;;
10110;SDS011;5095;49.796;9.934;2023-05-10T03:37:09;0.40;;;0.40;;
10110;SDS011;5095;49.796;9.934;2023-05-10T03:39:35;1.13;;;0.50;;
10110;SDS011;5095;49.796;9.934;2023-05-10T03:42:01;0.40;;;0.37;;
10110;SDS011;5095;49.796;9.934;2023-05-10T03:44:27;1.70;;;0.47;;
10110;SDS011;5095;49.796;9.934;2023-05-10T03:46:53;0.40;;;0.40;;
10110;SDS011;5095;49.796;9.934;2023-05-10T03:49:20;0.60;;;0.60;;
10110;SDS011;5095;49.796;9.934;2023-05-10T03:51:46;0.40;;;0.40;;
10110;SDS011;5095;49.796;9.934;2023-05-10T03:54:12;0.53;;;0.50;;
10110;SDS011;5095;49.796;9.934;2023-05-10T03:56:38;0.60;;;0.60;;
10110;SDS011;5095;49.796;9.934;2023-05-10T03:59:04;0.50;;;0.50;;
10110;SDS011;5095;49.796;9.934;2023-05-10T04:01:32;0.87;;;0.60;;
10110;SDS011;5095;49.796;9.934;2023-05-10T04:03:58;0.50;;;0.50;;
10110;SDS011;5095;49.796;9.934;2023-05-10T04:06:25;0.43;;;0.43;;
10110;SDS011;5095;49.796;9.934;2023-05-10T04:08:51;0.40;;;0.40;;
10110;SDS011;5095;49.796;9.934;2023-05-10T04:11:17;0.70;;;0.70;;
10110;SDS011;5095;49.796;9.934;2023-05-10T04:13:43;0.60;;;0.60;;
10110;SDS011;5095;49.796;9.934;2023-05-10T04:16:09;1.10;;;0.70;;
10110;SDS011;5095;49.796;9.934;2023-05-10T04:18:35;1.40;;;0.60;;
10110;SDS011;5095;49.796;9.934;2023-05-10T04:21:01;1.53;;;1.43;;
10110;SDS011;5095;49.796;9.934;2023-05-10T04:23:27;0.87;;;0.60;;
10110;SDS011;5095;49.796;9.934;2023-05-10T04:25:59;0.80;;;0.80;;
10110;SDS011;5095;49.796;9.934;2023-05-10T04:28:25;1.13;;;0.53;;
10110;SDS011;5095;49.796;9.934;2023-05-10T04:30:52;1.47;;;0.70;;
10110;SDS011;5095;49.796;9.934;2023-05-10T04:33:18;0.83;;;0.60;;
10110;SDS011;5095;49.796;9.934;2023-05-10T04:35:44;0.60;;;0.60;;
10110;SDS011;5095;49.796;9.934;2023-05-10T04:38:10;0.93;;;0.67;;
10110;SDS011;5095;49.796;9.934;2023-05-10T04:40:36;0.63;;;0.63;;
10110;SDS011;5095;49.796;9.934;2023-05-10T04:43:02;1.87;;;0.70;;
10110;SDS011;5095;49.796;9.934;2023-05-10T04:45:28;1.70;;;0.50;;
10110;SDS011;5095;49.796;9.934;2023-05-10T04:47:54;1.33;;;1.00;;
10110;SDS011;5095;49.796;9.934;2023-05-10T04:50:20;1.53;;;0.70;;
10110;SDS011;5095;49.796;9.934;2023-05-10T04:52:46;0.77;;;0.70;;
10110;SDS011;5095;49.796;9.934;2023-05-10T04:55:12;3.60;;;0.73;;
10110;SDS011;5095;49.796;9.934;2023-05-10T04:57:38;1.80;;;0.70;;
10110;SDS011;5095;49.796;9.934;2023-05-10T05:00:04;0.73;;;0.70;;
10110;SDS011;5095;49.796;9.934;2023-05-10T05:02:31;1.37;;;0.70;;
10110;SDS011;5095;49.796;9.934;2023-05-10T05:04:57;0.87;;;0.70;;
10110;SDS011;5095;49.796;9.934;2023-05-10T05:07:23;1.70;;;0.73;;
10110;SDS011;5095;49.796;9.934;2023-05-10T05:09:49;3.67;;;0.70;;
10110;SDS011;5095;49.796;9.934;2023-05-10T05:12:15;0.97;;;0.87;;
10110;SDS011;5095;49.796;9.934;2023-05-10T05:14:41;5.03;;;1.03;;
10110;SDS011;5095;49.796;9.934;2023-05-10T05:17:07;8.50;;;1.67;;
10110;SDS011;5095;49.796;9.934;2023-05-10T05:19:33;1.33;;;1.00;;
10110;SDS011;5095;49.796;9.934;2023-05-10T05:21:59;1.87;;;0.70;;
10110;SDS011;5095;49.796;9.934;2023-05-10T05:24:25;4.87;;;0.83;;
10110;SDS011;5095;49.796;9.934;2023-05-10T05:26:51;6.60;;;1.57;;
10110;SDS011;5095;49.796;9.934;2023-05-10T05:29:17;0.87;;;0.63;;
10110;SDS011;5095;49.796;9.934;2023-05-10T05:31:43;7.33;;;1.20;;
10110;SDS011;5095;49.796;9.934;2023-05-10T05:34:09;1.10;;;1.00;;
10110;SDS011;5095;49.796;9.934;2023-05-10T05:36:38;2.93;;;1.10;;
10110;SDS011;5095;49.796;9.934;2023-05-10T05:39:04;0.80;;;0.60;;
10110;SDS011;5095;49.796;9.934;2023-05-10T05:41:30;3.97;;;0.87;;
10110;SDS011;5095;49.796;9.934;2023-05-10T05:43:59;2.43;;;0.90;;
10110;SDS011;5095;49.796;9.934;2023-05-10T05:46:25;2.53;;;0.80;;
10110;SDS011;5095;49.796;9.934;2023-05-10T05:48:51;3.23;;;0.90;;
10110;SDS011;5095;49.796;9.934;2023-05-10T05:51:17;1.43;;;0.80;;
10110;SDS011;5095;49.796;9.934;2023-05-10T05:53:43;1.93;;;0.90;;
10110;SDS011;5095;49.796;9.934;2023-05-10T05:56:10;2.00;;;1.00;;
10110;SDS011;5095;49.796;9.934;2023-05-10T05:58:36;3.70;;;0.90;;
10110;SDS011;5095;49.796;9.934;2023-05-10T06:01:02;4.03;;;1.20;;
10110;SDS011;5095;49.796;9.934;2023-05-10T06:03:28;2.07;;;0.90;;
10110;SDS011;5095;49.796;9.934;2023-05-10T06:05:54;3.40;;;0.87;;
10110;SDS011;5095;49.796;9.934;2023-05-10T06:08:20;2.53;;;1.10;;
10110;SDS011;5095;49.796;9.934;2023-05-10T06:10:46;4.83;;;1.30;;
10110;SDS011;5095;49.796;9.934;2023-05-10T06:13:12;1.10;;;0.90;;
10110;SDS011;5095;49.796;9.934;2023-05-10T06:15:38;3.83;;;1.30;;
10110;SDS011;5095;49.796;9.934;2023-05-10T06:18:05;1.23;;;1.00;;
10110;SDS011;5095;49.796;9.934;2023-05-10T06:20:31;4.70;;;1.90;;
10110;SDS011;5095;49.796;9.934;2023-05-10T06:22:57;1.37;;;0.90;;
10110;SDS011;5095;49.796;9.934;2023-05-10T06:25:26;1.57;;;0.80;;
10110;SDS011;5095;49.796;9.934;2023-05-10T06:27:52;2.80;;;1.03;;
10110;SDS011;5095;49.796;9.934;2023-05-10T06:30:22;4.30;;;1.40;;
10110;SDS011;5095;49.796;9.934;2023-05-10T06:32:52;1.70;;;1.00;;
10110;SDS011;5095;49.796;9.934;2023-05-10T06:35:18;2.33;;;1.07;;
10110;SDS011;5095;49.796;9.934;2023-05-10T06:37:44;1.77;;;0.90;;
10110;SDS011;5095;49.796;9.934;2023-05-10T06:40:11;1.37;;;0.90;;
10110;SDS011;5095;49.796;9.934;2023-05-10T06:42:37;20.43;;;3.53;;
10110;SDS011;5095;49.796;9.934;2023-05-10T06:45:04;2.27;;;1.10;;
10110;SDS011;5095;49.796;9.934;2023-05-10T06:47:30;1.63;;;1.20;;
10110;SDS011;5095;49.796;9.934;2023-05-10T06:49:56;1.33;;;0.90;;
10110;SDS011;5095;49.796;9.934;2023-05-10T06:52:22;1.43;;;1.00;;
10110;SDS011;5095;49.796;9.934;2023-05-10T06:54:48;1.53;;;0.93;;
10110;SDS011;5095;49.796;9.934;2023-05-10T06:57:14;1.37;;;1.03;;
10110;SDS011;5095;49.796;9.934;2023-05-10T06:59:41;6.10;;;1.30;;
10110;SDS011;5095;49.796;9.934;2023-05-10T07:02:07;1.57;;;0.73;;
10110;SDS011;5095;49.796;9.934;2023-05-10T07:04:33;0.90;;;0.90;;
10110;SDS011;5095;49.796;9.934;2023-05-10T07:06:59;3.83;;;1.43;;
10110;SDS011;5095;49.796;9.934;2023-05-10T07:09:25;2.30;;;1.17;;
10110;SDS011;5095;49.796;9.934;2023-05-10T07:11:51;1.43;;;1.00;;
10110;SDS011;5095;49.796;9.934;2023-05-10T07:14:17;1.27;;;1.00;;
10110;SDS011;5095;49.796;9.934;2023-05-10T07:16:43;1.00;;;0.90;;
10110;SDS011;5095;49.796;9.934;2023-05-10T07:19:09;2.87;;;1.00;;
10110;SDS011;5095;49.796;9.934;2023-05-10T07:21:36;1.40;;;1.30;;
10110;SDS011;5095;49.796;9.934;2023-05-10T07:24:02;1.37;;;1.20;;
10110;SDS011;5095;49.796;9.934;2023-05-10T07:26:28;1.77;;;1.37;;
10110;SDS011;5095;49.796;9.934;2023-05-10T07:28:54;3.90;;;1.40;;
10110;SDS011;5095;49.796;9.934;2023-05-10T07:31:20;2.77;;;1.40;;
10110;SDS011;5095;49.796;9.934;2023-05-10T07:33:46;5.53;;;1.60;;
10110;SDS011;5095;49.796;9.934;2023-05-10T07:36:12;5.83;;;1.80;;
10110;SDS011;5095;49.796;9.934;2023-05-10T07:38:38;2.50;;;1.60;;
10110;SDS011;5095;49.796;9.934;2023-05-10T07:41:05;3.93;;;1.43;;
10110;SDS011;5095;49.796;9.934;2023-05-10T07:43:31;2.23;;;1.30;;
10110;SDS011;5095;49.796;9.934;2023-05-10T07:45:57;2.20;;;1.13;;
10110;SDS011;5095;49.796;9.934;2023-05-10T07:48:24;2.40;;;1.10;;
10110;SDS011;5095;49.796;9.934;2023-05-10T07:50:50;1.90;;;1.43;;
10110;SDS011;5095;49.796;9.934;2023-05-10T07:53:16;3.27;;;1.37;;
10110;SDS011;5095;49.796;9.934;2023-05-10T07:55:43;1.83;;;1.30;;
10110;SDS011;5095;49.796;9.934;2023-05-10T07:58:10;2.53;;;1.23;;
10110;SDS011;5095;49.796;9.934;2023-05-10T08:00:36;2.10;;;1.23;;
10110;SDS011;5095;49.796;9.934;2023-05-10T08:03:05;5.67;;;1.50;;
10110;SDS011;5095;49.796;9.934;2023-05-10T08:05:31;1.90;;;1.37;;
10110;SDS011;5095;49.796;9.934;2023-05-10T08:07:57;3.00;;;1.30;;
10110;SDS011;5095;49.796;9.934;2023-05-10T08:10:24;3.53;;;1.30;;
10110;SDS011;5095;49.796;9.934;2023-05-10T08:12:50;3.63;;;1.20;;
10110;SDS011;5095;49.796;9.934;2023-05-10T08:15:16;2.70;;;1.50;;
10110;SDS011;5095;49.796;9.934;2023-05-10T08:17:42;3.70;;;1.20;;
10110;SDS011;5095;49.796;9.934;2023-05-10T08:20:08;2.20;;;1.23;;
10110;SDS011;5095;49.796;9.934;2023-05-10T08:22:37;3.63;;;1.33;;
10110;SDS011;5095;49.796;9.934;2023-05-10T08:25:04;3.10;;;1.50;;
10110;SDS011;5095;49.796;9.934;2023-05-10T08:27:30;7.17;;;1.70;;
10110;SDS011;5095;49.796;9.934;2023-05-10T08:29:56;2.97;;;1.57;;
10110;SDS011;5095;49.796;9.934;2023-05-10T08:32:22;5.13;;;1.90;;
10110;SDS011;5095;49.796;9.934;2023-05-10T08:34:48;2.93;;;1.40;;
10110;SDS011;5095;49.796;9.934;2023-05-10T08:37:14;2.80;;;1.60;;
10110;SDS011;5095;49.796;9.934;2023-05-10T08:39:41;3.97;;;1.20;;
10110;SDS011;5095;49.796;9.934;2023-05-10T08:42:07;2.67;;;1.33;;
10110;SDS011;5095;49.796;9.934;2023-05-10T08:44:35;4.03;;;1.20;;
10110;SDS011;5095;49.796;9.934;2023-05-10T08:47:05;2.40;;;1.50;;
10110;SDS011;5095;49.796;9.934;2023-05-10T08:49:32;2.77;;;1.20;;
10110;SDS011;5095;49.796;9.934;2023-05-10T08:51:59;2.77;;;1.80;;
10110;SDS011;5095;49.796;9.934;2023-05-10T08:54:25;3.60;;;1.40;;
10110;SDS011;5095;49.796;9.934;2023-05-10T08:56:51;4.03;;;1.30;;
10110;SDS011;5095;49.796;9.934;2023-05-10T08:59:18;2.63;;;1.37;;
10110;SDS011;5095;49.796;9.934;2023-05-10T09:01:44;2.00;;;1.10;;
10110;SDS011;5095;49.796;9.934;2023-05-10T09:04:10;3.13;;;1.40;;
10110;SDS011;5095;49.796;9.934;2023-05-10T09:06:37;5.87;;;1.60;;
10110;SDS011;5095;49.796;9.934;2023-05-10T09:09:03;3.10;;;1.30;;
10110;SDS011;5095;49.796;9.934;2023-05-10T09:11:29;3.93;;;1.40;;
10110;SDS011;5095;49.796;9.934;2023-05-10T09:13:56;1.47;;;1.30;;
10110;SDS011;5095;49.796;9.934;2023-05-10T09:16:34;4.47;;;1.40;;
10110;SDS011;5095;49.796;9.934;2023-05-10T09:19:00;2.63;;;1.83;;
10110;SDS011;5095;49.796;9.934;2023-05-10T09:21:26;3.87;;;1.63;;
10110;SDS011;5095;49.796;9.934;2023-05-10T09:23:52;2.83;;;1.23;;
10110;SDS011;5095;49.796;9.934;2023-05-10T09:26:23;8.13;;;2.77;;
10110;SDS011;5095;49.796;9.934;2023-05-10T09:28:53;17.13;;;3.67;;
10110;SDS011;5095;49.796;9.934;2023-05-10T09:31:20;1.83;;;1.50;;
10110;SDS011;5095;49.796;9.934;2023-05-10T09:33:47;16.70;;;3.57;;
10110;SDS011;5095;49.796;9.934;2023-05-10T09:36:13;3.37;;;1.50;;
10110;SDS011;5095;49.796;9.934;2023-05-10T09:38:46;3.03;;;1.40;;
10110;SDS011;5095;49.796;9.934;2023-05-10T09:41:19;1.20;;;1.10;;
10110;SDS011;5095;49.796;9.934;2023-05-10T09:43:46;2.60;;;1.80;;
10110;SDS011;5095;49.796;9.934;2023-05-10T09:46:12;3.07;;;1.60;;
10110;SDS011;5095;49.796;9.934;2023-05-10T09:48:40;4.60;;;1.57;;
10110;SDS011;5095;49.796;9.934;2023-05-10T09:51:07;3.87;;;1.80;;
10110;SDS011;5095;49.796;9.934;2023-05-10T09:53:33;2.50;;;1.40;;
10110;SDS011;5095;49.796;9.934;2023-05-10T09:55:59;3.73;;;1.33;;
10110;SDS011;5095;49.796;9.934;2023-05-10T09:58:25;3.17;;;1.50;;
10110;SDS011;5095;49.796;9.934;2023-05-10T10:00:51;2.03;;;1.50;;
10110;SDS011;5095;49.796;9.934;2023-05-10T10:03:19;2.90;;;1.63;;
10110;SDS011;5095;49.796;9.934;2023-05-10T10:05:46;3.47;;;1.70;;
10110;SDS011;5095;49.796;9.934;2023-05-10T10:08:12;1.80;;;1.40;;
10110;SDS011;5095;49.796;9.934;2023-05-10T10:10:38;5.73;;;1.80;;
10110;SDS011;5095;49.796;9.934;2023-05-10T10:13:05;2.00;;;1.00;;
10110;SDS011;5095;49.796;9.934;2023-05-10T10:15:32;2.40;;;1.40;;
10110;SDS011;5095;49.796;9.934;2023-05-10T10:17:58;2.27;;;1.17;;
10110;SDS011;5095;49.796;9.934;2023-05-10T10:20:25;4.17;;;1.47;;
10110;SDS011;5095;49.796;9.934;2023-05-10T10:22:51;2.97;;;1.10;;
10110;SDS011;5095;49.796;9.934;2023-05-10T10:25:19;2.10;;;1.20;;
10110;SDS011;5095;49.796;9.934;2023-05-10T10:35:41;1.37;;;1.23;;
10110;SDS011;5095;49.796;9.934;2023-05-10T10:38:09;3.13;;;1.13;;
10110;SDS011;5095;49.796;9.934;2023-05-10T10:40:35;2.07;;;1.10;;
10110;SDS011;5095;49.796;9.934;2023-05-10T10:46:08;2.03;;;1.00;;
10110;SDS011;5095;49.796;9.934;2023-05-10T10:48:32;1.30;;;0.90;;
10110;SDS011;5095;49.796;9.934;2023-05-10T10:50:58;2.47;;;0.97;;
10110;SDS011;5095;49.796;9.934;2023-05-10T10:53:27;1.63;;;1.10;;
10110;SDS011;5095;49.796;9.934;2023-05-10T10:56:02;3.37;;;1.80;;
10110;SDS011;5095;49.796;9.934;2023-05-10T10:58:31;4.00;;;1.20;;
10110;SDS011;5095;49.796;9.934;2023-05-10T11:03:39;3.83;;;1.50;;
10110;SDS011;5095;49.796;9.934;2023-05-10T11:06:05;1.90;;;1.20;;
10110;SDS011;5095;49.796;9.934;2023-05-10T11:08:32;3.23;;;1.23;;
10110;SDS011;5095;49.796;9.934;2023-05-10T11:13:43;1.87;;;1.30;;
10110;SDS011;5095;49.796;9.934;2023-05-10T11:16:13;2.17;;;1.27;;
10110;SDS011;5095;49.796;9.934;2023-05-10T11:18:40;2.83;;;1.10;;
10110;SDS011;5095;49.796;9.934;2023-05-10T11:21:08;2.23;;;1.30;;
10110;SDS011;5095;49.796;9.934;2023-05-10T11:23:51;1.77;;;0.97;;
10110;SDS011;5095;49.796;9.934;2023-05-10T11:26:21;3.07;;;1.10;;
10110;SDS011;5095;49.796;9.934;2023-05-10T11:28:50;2.73;;;1.07;;
10110;SDS011;5095;49.796;9.934;2023-05-10T11:31:16;1.63;;;1.00;;
10110;SDS011;5095;49.796;9.934;2023-05-10T11:33:45;3.27;;;0.90;;
10110;SDS011;5095;49.796;9.934;2023-05-10T11:36:13;2.67;;;1.03;;
10110;SDS011;5095;49.796;9.934;2023-05-10T11:38:40;2.47;;;1.07;;
10110;SDS011;5095;49.796;9.934;2023-05-10T11:41:07;8.83;;;2.10;;
10110;SDS011;5095;49.796;9.934;2023-05-10T11:43:34;2.90;;;1.13;;
10110;SDS011;5095;49.796;9.934;2023-05-10T11:46:01;3.20;;;0.80;;
10110;SDS011;5095;49.796;9.934;2023-05-10T11:48:29;5.10;;;1.27;;
10110;SDS011;5095;49.796;9.934;2023-05-10T11:50:55;4.43;;;1.27;;
10110;SDS011;5095;49.796;9.934;2023-05-10T11:53:22;3.83;;;1.60;;
10110;SDS011;5095;49.796;9.934;2023-05-10T11:55:48;4.33;;;1.57;;
10110;SDS011;5095;49.796;9.934;2023-05-10T11:58:15;2.03;;;1.37;;
10110;SDS011;5095;49.796;9.934;2023-05-10T12:00:41;1.23;;;0.90;;
10110;SDS011;5095;49.796;9.934;2023-05-10T12:03:07;4.57;;;1.20;;
10110;SDS011;5095;49.796;9.934;2023-05-10T12:05:33;4.13;;;1.00;;
10110;SDS011;5095;49.796;9.934;2023-05-10T12:08:12;4.10;;;1.23;;
10110;SDS011;5095;49.796;9.934;2023-05-10T12:10:41;1.53;;;1.03;;
10110;SDS011;5095;49.796;9.934;2023-05-10T12:13:11;5.40;;;0.87;;
10110;SDS011;5095;49.796;9.934;2023-05-10T12:15:39;1.83;;;1.00;;
10110;SDS011;5095;49.796;9.934;2023-05-10T12:18:05;1.90;;;1.00;;
10110;SDS011;5095;49.796;9.934;2023-05-10T12:20:31;2.43;;;0.80;;
10110;SDS011;5095;49.796;9.934;2023-05-10T12:22:57;3.80;;;1.10;;
10110;SDS011;5095;49.796;9.934;2023-05-10T12:25:29;2.40;;;1.10;;
10110;SDS011;5095;49.796;9.934;2023-05-10T12:27:56;2.67;;;1.10;;
10110;SDS011;5095;49.796;9.934;2023-05-10T12:30:23;1.87;;;1.00;;
10110;SDS011;5095;49.796;9.934;2023-05-10T12:32:49;1.87;;;0.90;;
10110;SDS011;5095;49.796;9.934;2023-05-10T12:35:16;2.10;;;0.77;;
10110;SDS011;5095;49.796;9.934;2023-05-10T12:37:42;2.27;;;0.80;;
10110;SDS011;5095;49.796;9.934;2023-05-10T12:40:09;3.50;;;1.70;;
10110;SDS011;5095;49.796;9.934;2023-05-10T12:42:36;4.37;;;0.90;;
10110;SDS011;5095;49.796;9.934;2023-05-10T12:45:02;1.37;;;0.80;;
10110;SDS011;5095;49.796;9.934;2023-05-10T12:47:28;6.03;;;1.00;;
10110;SDS011;5095;49.796;9.934;2023-05-10T12:49:55;2.13;;;1.00;;
10110;SDS011;5095;49.796;9.934;2023-05-10T12:52:21;5.40;;;0.80;;
10110;SDS011;5095;49.796;9.934;2023-05-10T12:54:47;5.37;;;1.50;;
10110;SDS011;5095;49.796;9.934;2023-05-10T12:57:14;1.10;;;0.90;;
10110;SDS011;5095;49.796;9.934;2023-05-10T12:59:40;3.63;;;1.43;;
10110;SDS011;5095;49.796;9.934;2023-05-10T13:02:06;5.97;;;1.63;;
10110;SDS011;5095;49.796;9.934;2023-05-10T13:04:32;3.40;;;1.57;;
10110;SDS011;5095;49.796;9.934;2023-05-10T13:06:58;4.40;;;1.50;;
10110;SDS011;5095;49.796;9.934;2023-05-10T13:09:25;2.07;;;1.50;;
10110;SDS011;5095;49.796;9.934;2023-05-10T13:11:51;2.50;;;1.43;;
10110;SDS011;5095;49.796;9.934;2023-05-10T13:14:19;3.00;;;1.87;;
10110;SDS011;5095;49.796;9.934;2023-05-10T13:16:45;3.87;;;1.90;;
10110;SDS011;5095;49.796;9.934;2023-05-10T13:19:12;6.03;;;2.20;;
10110;SDS011;5095;49.796;9.934;2023-05-10T13:21:38;3.47;;;2.03;;
10110;SDS011;5095;49.796;9.934;2023-05-10T13:24:06;2.80;;;1.70;;
10110;SDS011;5095;49.796;9.934;2023-05-10T13:26:32;2.73;;;1.70;;
10110;SDS011;5095;49.796;9.934;2023-05-10T13:28:58;2.33;;;1.80;;
10110;SDS011;5095;49.796;9.934;2023-05-10T13:31:24;5.33;;;2.87;;
10110;SDS011;5095;49.796;9.934;2023-05-10T13:33:50;3.00;;;2.10;;
10110;SDS011;5095;49.796;9.934;2023-05-10T13:36:16;2.93;;;2.00;;
10110;SDS011;5095;49.796;9.934;2023-05-10T13:38:43;14.20;;;4.83;;
10110;SDS011;5095;49.796;9.934;2023-05-10T13:41:09;6.97;;;3.20;;
10110;SDS011;5095;49.796;9.934;2023-05-10T13:43:36;5.63;;;2.40;;
10110;SDS011;5095;49.796;9.934;2023-05-10T13:46:02;3.50;;;2.40;;
10110;SDS011;5095;49.796;9.934;2023-05-10T13:48:28;2.67;;;2.40;;
10110;SDS011;5095;49.796;9.934;2023-05-10T13:50:54;3.20;;;2.10;;
10110;SDS011;5095;49.796;9.934;2023-05-10T13:53:20;5.73;;;2.37;;
10110;SDS011;5095;49.796;9.934;2023-05-10T13:55:46;4.33;;;2.70;;
10110;SDS011;5095;49.796;9.934;2023-05-10T13:58:12;2.83;;;2.20;;
10110;SDS011;5095;49.796;9.934;2023-05-10T14:00:38;2.27;;;1.93;;
10110;SDS011;5095;49.796;9.934;2023-05-10T14:03:05;4.80;;;2.60;;
10110;SDS011;5095;49.796;9.934;2023-05-10T14:05:31;6.17;;;3.30;;
10110;SDS011;5095;49.796;9.934;2023-05-10T14:07:58;3.83;;;2.57;;
10110;SDS011;5095;49.796;9.934;2023-05-10T14:10:24;3.70;;;2.40;;
10110;SDS011;5095;49.796;9.934;2023-05-10T14:12:50;7.00;;;2.50;;
10110;SDS011;5095;49.796;9.934;2023-05-10T14:15:16;3.33;;;2.40;;
10110;SDS011;5095;49.796;9.934;2023-05-10T14:17:43;3.10;;;2.60;;
10110;SDS011;5095;49.796;9.934;2023-05-10T14:20:09;5.00;;;2.40;;
10110;SDS011;5095;49.796;9.934;2023-05-10T14:22:35;3.23;;;2.43;;
10110;SDS011;5095;49.796;9.934;2023-05-10T14:25:01;2.40;;;2.13;;
10110;SDS011;5095;49.796;9.934;2023-05-10T14:27:27;4.30;;;2.73;;
10110;SDS011;5095;49.796;9.934;2023-05-10T14:29:53;3.43;;;2.10;;
10110;SDS011;5095;49.796;9.934;2023-05-10T14:32:20;9.17;;;6.03;;
10110;SDS011;5095;49.796;9.934;2023-05-10T14:34:46;3.93;;;2.47;;
10110;SDS011;5095;49.796;9.934;2023-05-10T14:37:13;4.40;;;2.50;;
10110;SDS011;5095;49.796;9.934;2023-05-10T14:39:39;3.13;;;2.70;;
10110;SDS011;5095;49.796;9.934;2023-05-10T14:42:06;4.27;;;2.70;;
10110;SDS011;5095;49.796;9.934;2023-05-10T14:44:32;3.20;;;2.50;;
10110;SDS011;5095;49.796;9.934;2023-05-10T14:46:58;5.80;;;2.87;;
10110;SDS011;5095;49.796;9.934;2023-05-10T14:49:24;4.03;;;2.80;;
10110;SDS011;5095;49.796;9.934;2023-05-10T14:51:51;6.10;;;3.60;;
10110;SDS011;5095;49.796;9.934;2023-05-10T14:54:17;4.97;;;3.73;;
10110;SDS011;5095;49.796;9.934;2023-05-10T14:56:43;5.50;;;3.50;;
10110;SDS011;5095;49.796;9.934;2023-05-10T14:59:10;4.70;;;3.37;;
10110;SDS011;5095;49.796;9.934;2023-05-10T15:01:36;7.00;;;3.43;;
10110;SDS011;5095;49.796;9.934;2023-05-10T15:04:03;3.97;;;3.30;;
10110;SDS011;5095;49.796;9.934;2023-05-10T15:06:32;8.10;;;4.53;;
10110;SDS011;5095;49.796;9.934;2023-05-10T15:08:59;3.40;;;2.77;;
10110;SDS011;5095;49.796;9.934;2023-05-10T15:11:25;6.80;;;3.43;;
10110;SDS011;5095;49.796;9.934;2023-05-10T15:13:51;4.03;;;3.03;;
10110;SDS011;5095;49.796;9.934;2023-05-10T15:16:17;3.93;;;3.10;;
10110;SDS011;5095;49.796;9.934;2023-05-10T15:18:44;5.60;;;2.90;;
10110;SDS011;5095;49.796;9.934;2023-05-10T15:21:10;6.30;;;2.87;;
10110;SDS011;5095;49.796;9.934;2023-05-10T15:23:37;5.73;;;2.60;;
10110;SDS011;5095;49.796;9.934;2023-05-10T15:26:03;5.03;;;2.70;;
10110;SDS011;5095;49.796;9.934;2023-05-10T15:28:29;3.40;;;2.47;;
10110;SDS011;5095;49.796;9.934;2023-05-10T15:30:56;3.43;;;2.43;;
10110;SDS011;5095;49.796;9.934;2023-05-10T15:33:22;3.73;;;2.80;;